Time;durP1;ratioP1;P1;durP2;ratioP2;P2;SDS_P1;SDS_P2;PMS_P1;PMS_P2;Temp;Humidity;BMP_temperature;BMP_pressure;BME280_temperature;BME280_humidity;BME280_pressure;Samples;Min_cycle;Max_cycle;Signal;HPM_P1;HPM_P2
2023/08/01 00:00:51;;;;;;;9.25;6.38;;;;;;;;;;5077702;28;20017;-67
2023/08/01 00:03:16;;;;;;;10.07;5.80;;;;;;;;;;5077278;28;20082;-67
2023/08/01 00:05:44;;;;;;;11.75;6.35;;;;;;;;;;5076903;28;20026;-67
2023/08/01 00:08:12;;;;;;;9.57;5.45;;;;;;;;;;5075115;28;20386;-67
2023/08/01 00:10:37;;;;;;;11.25;6.20;;;;;;;;;;5078262;28;20025;-67
2023/08/01 00:13:02;;;;;;;12.98;6.45;;;;;;;;;;5078445;28;20112;-67
2023/08/01 00:15:27;;;;;;;13.10;7.05;;;;;;;;;;5080833;28;20388;-67
2023/08/01 00:17:53;;;;;;;12.00;6.15;;;;;;;;;;5080828;28;20027;-67
2023/08/01 00:20:18;;;;;;;11.05;6.80;;;;;;;;;;5084866;28;20031;-67
2023/08/01 00:22:44;;;;;;;11.25;6.35;;;;;;;;;;5079619;28;20044;-67
2023/08/01 00:25:09;;;;;;;13.43;6.78;;;;;;;;;;5081161;28;20069;-67
2023/08/01 00:27:34;;;;;;;10.43;6.68;;;;;;;;;;5079852;28;20524;-67
2023/08/01 00:29:59;;;;;;;10.35;5.97;;;;;;;;;;5073662;28;20016;-67
2023/08/01 00:32:25;;;;;;;10.25;6.15;;;;;;;;;;5073566;28;20087;-67
2023/08/01 00:34:50;;;;;;;10.40;5.97;;;;;;;;;;5080563;28;20062;-67
2023/08/01 00:37:16;;;;;;;14.20;5.82;;;;;;;;;;5083163;28;20020;-67
2023/08/01 00:39:41;;;;;;;10.02;5.90;;;;;;;;;;5079478;28;20020;-67
2023/08/01 00:42:06;;;;;;;14.70;5.93;;;;;;;;;;5076202;28;20044;-67
2023/08/01 00:44:31;;;;;;;9.13;5.78;;;;;;;;;;5076682;28;20024;-66
2023/08/01 00:46:57;;;;;;;11.73;5.93;;;;;;;;;;5077662;28;20072;-67
2023/08/01 00:49:22;;;;;;;10.65;5.82;;;;;;;;;;5074445;28;20112;-67
2023/08/01 00:51:47;;;;;;;12.00;6.00;;;;;;;;;;5081869;28;20027;-67
2023/08/01 00:54:12;;;;;;;9.85;5.90;;;;;;;;;;5077858;28;20016;-66
2023/08/01 00:56:38;;;;;;;12.43;6.47;;;;;;;;;;5074064;28;20028;-66
2023/08/01 00:59:03;;;;;;;11.68;6.22;;;;;;;;;;5073238;28;20025;-67
2023/08/01 01:04:07;;;;;;;10.48;6.15;;;;;;;;;;5050432;28;20049;-68
2023/08/01 01:06:36;;;;;;;10.35;5.80;;;;;;;;;;5066932;28;20115;-67
2023/08/01 01:09:04;;;;;;;14.57;6.32;;;;;;;;;;5057031;28;20373;-67
2023/08/01 01:11:30;;;;;;;13.07;6.30;;;;;;;;;;5054904;28;20017;-69
2023/08/01 01:13:55;;;;;;;10.73;6.10;;;;;;;;;;5054570;28;20474;-68
2023/08/01 01:16:20;;;;;;;10.23;5.93;;;;;;;;;;5054551;28;20028;-68
2023/08/01 01:18:45;;;;;;;12.65;6.30;;;;;;;;;;5056370;28;20114;-68
2023/08/01 01:21:32;;;;;;;11.77;6.00;;;;;;;;;;5059672;28;20025;-68
2023/08/01 01:23:58;;;;;;;10.52;5.68;;;;;;;;;;5036209;28;20028;-67
2023/08/01 01:26:24;;;;;;;12.23;5.55;;;;;;;;;;5071972;28;20360;-68
2023/08/01 01:28:50;;;;;;;9.70;5.40;;;;;;;;;;5039814;28;20033;-68
2023/08/01 01:31:16;;;;;;;10.05;5.30;;;;;;;;;;5063735;28;20020;-67
2023/08/01 01:33:41;;;;;;;12.18;5.18;;;;;;;;;;5064203;28;20036;-68
2023/08/01 01:36:06;;;;;;;9.93;5.25;;;;;;;;;;5050701;28;20032;-67
2023/08/01 01:38:32;;;;;;;10.90;6.07;;;;;;;;;;5055643;28;20119;-68
2023/08/01 01:40:57;;;;;;;10.75;5.90;;;;;;;;;;5058006;28;20052;-68
2023/08/01 01:43:22;;;;;;;12.57;6.05;;;;;;;;;;5059320;28;20422;-68
2023/08/01 01:45:47;;;;;;;10.40;5.90;;;;;;;;;;5060689;28;20439;-67
2023/08/01 01:48:12;;;;;;;12.57;6.78;;;;;;;;;;5059101;28;20028;-68
2023/08/01 01:50:38;;;;;;;12.93;6.70;;;;;;;;;;5054867;28;20457;-66
2023/08/01 01:53:03;;;;;;;13.00;6.05;;;;;;;;;;5060705;28;20056;-66
2023/08/01 01:55:29;;;;;;;11.32;6.38;;;;;;;;;;5055252;28;20048;-66
2023/08/01 01:57:54;;;;;;;17.30;6.70;;;;;;;;;;5051697;28;20036;-68
2023/08/01 02:00:19;;;;;;;12.85;7.03;;;;;;;;;;5056107;28;20066;-65
2023/08/01 02:02:44;;;;;;;16.77;6.93;;;;;;;;;;5050028;28;20041;-68
2023/08/01 02:05:10;;;;;;;13.25;6.90;;;;;;;;;;5043868;28;20113;-69
2023/08/01 02:07:35;;;;;;;13.13;7.22;;;;;;;;;;5048280;28;20033;-68
2023/08/01 02:10:01;;;;;;;16.15;7.68;;;;;;;;;;5040600;28;20084;-68
2023/08/01 02:12:27;;;;;;;14.35;7.60;;;;;;;;;;5044584;28;20354;-72
2023/08/01 02:14:52;;;;;;;14.52;8.40;;;;;;;;;;5042877;28;20425;-68
2023/08/01 02:17:17;;;;;;;18.08;8.50;;;;;;;;;;5042242;28;20068;-66
2023/08/01 02:19:43;;;;;;;14.05;7.40;;;;;;;;;;5045439;28;20100;-68
2023/08/01 02:22:08;;;;;;;14.35;8.20;;;;;;;;;;5036570;28;20044;-69
2023/08/01 02:24:33;;;;;;;16.60;8.50;;;;;;;;;;5037426;28;20067;-68
2023/08/01 02:26:58;;;;;;;17.15;8.57;;;;;;;;;;5025195;28;20120;-68
2023/08/01 02:29:23;;;;;;;16.30;8.30;;;;;;;;;;5043699;28;20072;-68
2023/08/01 02:31:49;;;;;;;18.13;8.77;;;;;;;;;;5039714;28;20013;-68
2023/08/01 02:34:14;;;;;;;17.05;8.73;;;;;;;;;;5040894;28;20021;-67
2023/08/01 02:36:40;;;;;;;19.58;9.25;;;;;;;;;;5044379;28;20488;-66
2023/08/01 02:39:06;;;;;;;19.00;9.27;;;;;;;;;;5045233;28;20029;-68
2023/08/01 02:41:31;;;;;;;16.23;8.75;;;;;;;;;;5032858;28;20032;-68
2023/08/01 02:43:56;;;;;;;16.73;9.40;;;;;;;;;;5034410;28;20033;-69
2023/08/01 02:46:21;;;;;;;19.70;9.88;;;;;;;;;;5036020;28;20033;-68
2023/08/01 02:48:47;;;;;;;21.63;10.57;;;;;;;;;;5042989;28;20027;-68
2023/08/01 02:51:12;;;;;;;23.08;10.35;;;;;;;;;;5038709;28;20104;-68
2023/08/01 02:53:40;;;;;;;22.15;10.70;;;;;;;;;;5038346;28;20036;-69
2023/08/01 02:56:07;;;;;;;19.67;10.00;;;;;;;;;;5049233;28;20009;-68
2023/08/01 02:58:32;;;;;;;19.45;9.55;;;;;;;;;;5033638;28;20370;-68
2023/08/01 03:00:57;;;;;;;18.33;9.63;;;;;;;;;;5038194;28;20029;-68
2023/08/01 03:03:23;;;;;;;18.75;8.95;;;;;;;;;;5043715;28;20417;-68
2023/08/01 03:05:48;;;;;;;15.88;9.27;;;;;;;;;;5039794;28;20545;-68
2023/08/01 03:08:13;;;;;;;19.90;9.73;;;;;;;;;;5040430;28;20017;-69
2023/08/01 03:10:39;;;;;;;19.88;8.90;;;;;;;;;;5039283;28;20052;-68
2023/08/01 03:13:04;;;;;;;18.02;9.15;;;;;;;;;;5041589;28;20021;-68
2023/08/01 03:15:29;;;;;;;17.60;8.55;;;;;;;;;;5049806;28;20476;-68
2023/08/01 03:17:54;;;;;;;17.65;9.02;;;;;;;;;;5035987;28;20017;-70
2023/08/01 03:20:20;;;;;;;14.50;7.55;;;;;;;;;;5035494;28;20147;-67
2023/08/01 03:22:45;;;;;;;16.85;8.55;;;;;;;;;;5039476;28;20024;-72
2023/08/01 03:25:10;;;;;;;16.42;9.00;;;;;;;;;;5035965;28;20480;-73
2023/08/01 03:27:36;;;;;;;16.10;7.75;;;;;;;;;;5042997;28;20075;-72
2023/08/01 03:30:02;;;;;;;16.50;8.32;;;;;;;;;;5032711;28;20117;-72
2023/08/01 03:32:27;;;;;;;17.40;7.93;;;;;;;;;;5041162;28;20016;-72
2023/08/01 03:34:52;;;;;;;18.10;8.52;;;;;;;;;;5044801;28;20025;-72
2023/08/01 03:37:18;;;;;;;16.90;8.27;;;;;;;;;;5040225;28;20021;-73
2023/08/01 03:39:43;;;;;;;15.07;8.98;;;;;;;;;;5043089;28;20035;-73
2023/08/01 03:42:08;;;;;;;16.50;7.80;;;;;;;;;;5041379;28;20421;-73
2023/08/01 03:44:33;;;;;;;17.48;8.20;;;;;;;;;;5046376;28;20424;-72
2023/08/01 03:46:59;;;;;;;18.00;8.48;;;;;;;;;;5041900;28;20111;-71
2023/08/01 03:49:24;;;;;;;18.42;9.38;;;;;;;;;;5042655;28;20025;-70
2023/08/01 03:51:50;;;;;;;16.73;9.10;;;;;;;;;;5048050;28;20044;-70
2023/08/01 03:54:15;;;;;;;21.33;10.02;;;;;;;;;;5038946;28;20021;-70
2023/08/01 03:56:42;;;;;;;19.05;9.32;;;;;;;;;;5042878;28;20024;-70
2023/08/01 03:59:08;;;;;;;21.23;9.30;;;;;;;;;;5041221;28;20079;-73
2023/08/01 04:01:33;;;;;;;23.77;11.27;;;;;;;;;;5040764;28;20026;-72
2023/08/01 04:03:58;;;;;;;21.15;10.18;;;;;;;;;;5048550;28;20083;-72
2023/08/01 04:06:23;;;;;;;20.65;10.02;;;;;;;;;;5044909;28;20032;-73
2023/08/01 04:08:49;;;;;;;20.50;10.73;;;;;;;;;;5051562;28;20028;-73
2023/08/01 04:11:15;;;;;;;19.75;10.40;;;;;;;;;;5046068;28;20025;-72
2023/08/01 04:13:40;;;;;;;24.83;11.60;;;;;;;;;;5046992;28;20110;-73
2023/08/01 04:16:05;;;;;;;23.42;11.48;;;;;;;;;;5048415;28;20473;-72
2023/08/01 04:18:30;;;;;;;25.30;11.75;;;;;;;;;;5050080;28;20465;-73
2023/08/01 04:20:55;;;;;;;20.30;10.73;;;;;;;;;;5050609;28;20029;-72
2023/08/01 04:23:21;;;;;;;17.83;10.48;;;;;;;;;;5053562;28;20527;-72
2023/08/01 04:25:46;;;;;;;21.85;11.20;;;;;;;;;;5047980;28;20893;-73
2023/08/01 04:28:11;;;;;;;19.75;10.40;;;;;;;;;;5049241;28;20099;-72
2023/08/01 04:30:38;;;;;;;21.30;11.32;;;;;;;;;;5047274;28;20112;-71
2023/08/01 04:33:03;;;;;;;25.75;11.40;;;;;;;;;;5044051;28;20109;-67
2023/08/01 04:35:28;;;;;;;22.05;11.45;;;;;;;;;;5051924;28;20025;-66
2023/08/01 04:37:53;;;;;;;21.98;11.65;;;;;;;;;;5047453;28;20087;-69
2023/08/01 04:40:19;;;;;;;22.30;11.40;;;;;;;;;;5048008;28;20033;-68
2023/08/01 04:42:44;;;;;;;26.30;11.63;;;;;;;;;;5052174;28;20037;-67
2023/08/01 04:45:09;;;;;;;19.20;11.73;;;;;;;;;;5050329;28;20033;-67
2023/08/01 04:47:35;;;;;;;19.23;11.52;;;;;;;;;;5049809;28;20067;-67
2023/08/01 04:50:00;;;;;;;21.67;12.35;;;;;;;;;;5048635;28;20116;-67
2023/08/01 04:52:26;;;;;;;19.90;11.05;;;;;;;;;;5039463;28;20051;-67
2023/08/01 04:54:51;;;;;;;23.38;11.98;;;;;;;;;;5051192;28;20029;-66
2023/08/01 04:57:16;;;;;;;23.05;12.10;;;;;;;;;;5054280;28;20021;-66
2023/08/01 04:59:41;;;;;;;22.50;11.73;;;;;;;;;;5053489;28;20012;-66
2023/08/01 05:02:06;;;;;;;22.10;11.82;;;;;;;;;;5060413;28;20048;-68
2023/08/01 05:04:32;;;;;;;22.25;11.82;;;;;;;;;;5065467;28;20468;-67
2023/08/01 05:06:57;;;;;;;21.77;11.23;;;;;;;;;;5064150;28;20107;-67
2023/08/01 05:09:22;;;;;;;19.25;11.00;;;;;;;;;;5064928;28;20452;-68
2023/08/01 05:11:47;;;;;;;25.58;11.57;;;;;;;;;;5067596;28;20024;-68
2023/08/01 05:14:13;;;;;;;19.55;11.40;;;;;;;;;;5063845;28;20100;-67
2023/08/01 05:16:38;;;;;;;17.33;9.88;;;;;;;;;;5066509;28;20445;-66
2023/08/01 05:19:03;;;;;;;17.65;10.07;;;;;;;;;;5070029;28;20031;-68
2023/08/01 05:21:28;;;;;;;19.35;11.35;;;;;;;;;;5067518;28;20063;-67
2023/08/01 05:23:54;;;;;;;19.58;10.35;;;;;;;;;;5071689;28;20752;-67
2023/08/01 05:26:19;;;;;;;16.55;10.48;;;;;;;;;;5061041;28;20464;-66
2023/08/01 05:28:44;;;;;;;22.85;12.07;;;;;;;;;;5072797;28;20389;-67
2023/08/01 05:31:09;;;;;;;19.38;11.57;;;;;;;;;;5061703;28;20036;-66
2023/08/01 05:33:34;;;;;;;22.90;11.55;;;;;;;;;;5062612;28;20020;-66
2023/08/01 05:36:00;;;;;;;19.95;12.13;;;;;;;;;;5064721;28;20032;-68
2023/08/01 05:38:25;;;;;;;19.35;10.95;;;;;;;;;;5064486;28;20020;-66
2023/08/01 05:40:50;;;;;;;22.50;11.82;;;;;;;;;;5070799;28;20029;-65
2023/08/01 05:43:16;;;;;;;23.10;10.55;;;;;;;;;;5069311;28;20055;-66
2023/08/01 05:45:41;;;;;;;24.80;11.90;;;;;;;;;;5058692;28;20060;-66
2023/08/01 05:48:06;;;;;;;21.95;12.02;;;;;;;;;;5054094;28;20056;-66
2023/08/01 05:50:31;;;;;;;20.42;10.88;;;;;;;;;;5070779;28;20039;-66
2023/08/01 05:52:57;;;;;;;21.00;11.43;;;;;;;;;;5065909;28;20396;-66
2023/08/01 05:55:22;;;;;;;21.63;11.68;;;;;;;;;;5068150;28;20025;-66
2023/08/01 05:57:48;;;;;;;18.23;11.48;;;;;;;;;;5074381;28;20016;-66
2023/08/01 06:00:14;;;;;;;18.13;8.73;;;;;;;;;;5075540;28;20387;-66
2023/08/01 06:02:39;;;;;;;16.77;8.52;;;;;;;;;;5070715;28;20136;-67
2023/08/01 06:05:05;;;;;;;18.63;10.10;;;;;;;;;;5071823;28;20048;-66
2023/08/01 06:07:30;;;;;;;20.92;9.38;;;;;;;;;;5071735;28;20020;-67
2023/08/01 06:09:55;;;;;;;17.98;8.02;;;;;;;;;;5063229;28;20437;-66
2023/08/01 06:12:21;;;;;;;16.17;8.27;;;;;;;;;;5069120;28;20520;-66
2023/08/01 06:14:47;;;;;;;16.83;7.65;;;;;;;;;;5051718;28;20369;-66
2023/08/01 06:17:12;;;;;;;16.77;7.68;;;;;;;;;;5052806;28;20024;-66
2023/08/01 06:19:37;;;;;;;14.48;7.55;;;;;;;;;;5052586;28;20017;-66
2023/08/01 06:22:03;;;;;;;18.30;7.82;;;;;;;;;;5052368;28;20032;-66
2023/08/01 06:24:28;;;;;;;16.95;7.50;;;;;;;;;;5052440;28;20028;-66
2023/08/01 06:26:53;;;;;;;14.90;7.38;;;;;;;;;;5052663;28;20060;-66
2023/08/01 06:29:18;;;;;;;12.77;6.43;;;;;;;;;;5052574;28;20032;-66
2023/08/01 06:31:44;;;;;;;12.50;5.78;;;;;;;;;;5052607;28;20021;-68
2023/08/01 06:34:09;;;;;;;12.75;5.43;;;;;;;;;;5052663;28;20028;-67
2023/08/01 06:36:35;;;;;;;13.18;5.53;;;;;;;;;;5052841;28;20424;-67
2023/08/01 06:39:00;;;;;;;12.27;6.10;;;;;;;;;;5049610;28;20362;-68
2023/08/01 06:41:25;;;;;;;7.95;4.10;;;;;;;;;;5051062;28;20041;-67
2023/08/01 06:43:50;;;;;;;12.35;4.82;;;;;;;;;;5052359;28;20108;-67
2023/08/01 06:46:16;;;;;;;8.82;4.57;;;;;;;;;;5052179;28;20057;-67
2023/08/01 06:48:41;;;;;;;15.10;4.32;;;;;;;;;;5052114;28;20385;-67
2023/08/01 06:51:06;;;;;;;12.52;4.55;;;;;;;;;;5051989;28;20382;-67
2023/08/01 06:53:31;;;;;;;9.35;4.32;;;;;;;;;;5052448;28;20049;-71
2023/08/01 06:55:56;;;;;;;9.27;3.60;;;;;;;;;;5052208;28;20116;-72
2023/08/01 06:58:22;;;;;;;8.07;3.70;;;;;;;;;;5052270;28;20024;-72
2023/08/01 07:00:47;;;;;;;12.82;4.45;;;;;;;;;;5052251;28;20029;-71
2023/08/01 07:03:12;;;;;;;12.43;5.22;;;;;;;;;;5059431;28;20040;-71
2023/08/01 07:05:38;;;;;;;11.82;4.45;;;;;;;;;;5072204;28;20013;-71
2023/08/01 07:08:03;;;;;;;8.13;3.90;;;;;;;;;;5072098;28;20029;-71
2023/08/01 07:10:29;;;;;;;9.25;4.38;;;;;;;;;;5072151;28;20024;-71
2023/08/01 07:12:54;;;;;;;11.73;4.60;;;;;;;;;;5072029;28;20028;-71
2023/08/01 07:15:20;;;;;;;11.48;5.25;;;;;;;;;;5072047;28;20016;-71
2023/08/01 07:17:45;;;;;;;8.95;5.10;;;;;;;;;;5071731;28;20015;-71
2023/08/01 07:20:10;;;;;;;7.53;3.75;;;;;;;;;;5071682;28;20025;-71
2023/08/01 07:22:36;;;;;;;9.63;3.97;;;;;;;;;;5071614;28;20025;-71
2023/08/01 07:25:01;;;;;;;9.35;4.15;;;;;;;;;;5071976;28;20039;-71
2023/08/01 07:27:26;;;;;;;7.95;3.42;;;;;;;;;;5071831;28;20016;-71
2023/08/01 07:29:51;;;;;;;6.38;2.80;;;;;;;;;;5071538;28;20040;-71
2023/08/01 07:32:16;;;;;;;8.07;3.00;;;;;;;;;;5071436;28;20019;-71
2023/08/01 07:34:42;;;;;;;8.60;2.53;;;;;;;;;;5071739;28;20099;-72
2023/08/01 07:37:07;;;;;;;5.45;2.20;;;;;;;;;;5071367;28;20016;-71
2023/08/01 07:39:34;;;;;;;6.32;2.10;;;;;;;;;;5071394;28;20092;-72
2023/08/01 07:41:59;;;;;;;3.50;1.50;;;;;;;;;;5071550;28;20071;-72
2023/08/01 07:44:25;;;;;;;4.05;2.00;;;;;;;;;;5071469;28;20394;-72
2023/08/01 07:46:50;;;;;;;6.20;1.90;;;;;;;;;;5071388;28;20112;-72
2023/08/01 07:49:16;;;;;;;5.13;2.22;;;;;;;;;;5071470;28;20016;-72
2023/08/01 07:51:41;;;;;;;7.68;3.08;;;;;;;;;;5071690;28;20131;-72
2023/08/01 07:54:06;;;;;;;6.57;2.92;;;;;;;;;;5074756;28;20025;-71
2023/08/01 07:56:31;;;;;;;5.07;2.38;;;;;;;;;;5075660;28;20027;-72
2023/08/01 07:58:56;;;;;;;6.30;2.60;;;;;;;;;;5074372;28;20013;-71
2023/08/01 08:01:22;;;;;;;5.68;2.47;;;;;;;;;;5076892;28;20032;-72
2023/08/01 08:03:47;;;;;;;5.53;2.80;;;;;;;;;;5075200;28;20048;-71
2023/08/01 08:06:13;;;;;;;5.93;2.67;;;;;;;;;;5075585;28;20479;-71
2023/08/01 08:08:38;;;;;;;4.95;2.38;;;;;;;;;;5075180;28;20376;-71
2023/08/01 08:11:03;;;;;;;8.75;3.20;;;;;;;;;;5075174;28;20020;-71
2023/08/01 08:13:29;;;;;;;5.95;2.63;;;;;;;;;;5075025;28;20009;-71
2023/08/01 08:15:57;;;;;;;5.53;2.30;;;;;;;;;;5074470;28;20027;-71
2023/08/01 08:18:22;;;;;;;6.45;2.65;;;;;;;;;;5075016;28;20009;-71
2023/08/01 08:20:48;;;;;;;7.05;3.00;;;;;;;;;;5074921;28;20047;-71
2023/08/01 08:23:16;;;;;;;10.32;3.88;;;;;;;;;;5075184;28;20104;-71
2023/08/01 08:25:42;;;;;;;7.22;2.85;;;;;;;;;;5074783;28;20030;-71
2023/08/01 08:28:08;;;;;;;5.45;2.13;;;;;;;;;;5075035;28;20017;-71
2023/08/01 08:30:33;;;;;;;4.75;2.22;;;;;;;;;;5074704;28;20028;-71
2023/08/01 08:33:03;;;;;;;5.10;2.10;;;;;;;;;;5074560;28;20040;-71
2023/08/01 08:35:29;;;;;;;6.65;2.60;;;;;;;;;;5074668;28;20044;-72
2023/08/01 08:37:54;;;;;;;6.05;2.15;;;;;;;;;;5074429;28;20049;-71
2023/08/01 08:40:19;;;;;;;7.22;2.03;;;;;;;;;;5074920;28;20020;-71
2023/08/01 08:42:45;;;;;;;5.55;2.10;;;;;;;;;;5074204;28;20096;-71
2023/08/01 08:45:11;;;;;;;3.55;1.63;;;;;;;;;;5074667;28;20025;-71
2023/08/01 08:47:38;;;;;;;4.88;1.75;;;;;;;;;;5074722;28;20028;-71
2023/08/01 08:50:04;;;;;;;4.68;2.00;;;;;;;;;;5073791;28;20110;-71
2023/08/01 08:52:29;;;;;;;5.28;2.20;;;;;;;;;;5074466;28;20032;-72
2023/08/01 08:54:56;;;;;;;4.60;1.55;;;;;;;;;;5071410;28;20012;-71
2023/08/01 08:57:21;;;;;;;4.20;1.65;;;;;;;;;;5070289;28;20012;-71
2023/08/01 08:59:47;;;;;;;4.68;1.52;;;;;;;;;;5074190;28;20095;-71
2023/08/01 09:02:14;;;;;;;5.88;1.70;;;;;;;;;;5074127;28;20024;-71
2023/08/01 09:04:39;;;;;;;4.32;1.15;;;;;;;;;;5073979;28;20082;-71
2023/08/01 09:07:08;;;;;;;4.93;1.45;;;;;;;;;;5074035;28;20024;-72
2023/08/01 09:09:34;;;;;;;3.17;1.30;;;;;;;;;;5074248;28;20020;-71
2023/08/01 09:11:59;;;;;;;5.80;1.40;;;;;;;;;;5074030;28;20027;-71
2023/08/01 09:14:24;;;;;;;3.20;1.10;;;;;;;;;;5074212;28;20016;-67
2023/08/01 09:16:49;;;;;;;3.13;1.25;;;;;;;;;;5074080;28;20044;-67
2023/08/01 09:19:21;;;;;;;3.42;1.20;;;;;;;;;;5073775;28;20024;-68
2023/08/01 09:21:47;;;;;;;5.50;1.45;;;;;;;;;;5074332;28;20029;-67
2023/08/01 09:24:16;;;;;;;3.38;1.40;;;;;;;;;;5073809;28;20025;-67
2023/08/01 09:26:42;;;;;;;9.45;1.33;;;;;;;;;;5073818;28;20012;-67
2023/08/01 09:29:08;;;;;;;3.85;1.40;;;;;;;;;;5073908;28;20482;-67
2023/08/01 09:31:39;;;;;;;7.25;1.80;;;;;;;;;;5074104;28;20087;-66
2023/08/01 09:34:07;;;;;;;4.55;1.67;;;;;;;;;;5073750;28;20048;-67
2023/08/01 09:36:33;;;;;;;4.15;1.42;;;;;;;;;;5073205;28;20025;-67
2023/08/01 09:39:02;;;;;;;4.22;1.60;;;;;;;;;;5073335;28;20009;-66
2023/08/01 09:41:31;;;;;;;5.18;1.63;;;;;;;;;;5073355;28;20086;-67
2023/08/01 09:43:57;;;;;;;5.20;1.85;;;;;;;;;;5073744;28;20024;-68
2023/08/01 09:46:23;;;;;;;4.97;1.50;;;;;;;;;;5073697;28;20062;-66
2023/08/01 09:48:48;;;;;;;4.88;1.73;;;;;;;;;;5073228;28;20008;-67
2023/08/01 09:51:14;;;;;;;4.68;1.50;;;;;;;;;;5073389;28;20439;-67
2023/08/01 09:54:06;;;;;;;3.45;1.50;;;;;;;;;;5073373;28;20023;-67
2023/08/01 09:56:31;;;;;;;4.60;1.50;;;;;;;;;;5068923;28;20111;-67
2023/08/01 09:58:59;;;;;;;3.85;1.73;;;;;;;;;;5073453;28;20040;-68
2023/08/01 10:01:24;;;;;;;6.25;2.13;;;;;;;;;;5073282;28;20017;-67
2023/08/01 10:03:51;;;;;;;4.07;1.48;;;;;;;;;;5072729;28;20056;-67
2023/08/01 10:06:18;;;;;;;3.13;1.40;;;;;;;;;;5071352;28;20104;-68
2023/08/01 10:08:44;;;;;;;4.68;1.30;;;;;;;;;;5072985;28;20008;-66
2023/08/01 10:11:09;;;;;;;5.82;1.30;;;;;;;;;;5072941;28;20020;-66
2023/08/01 10:13:35;;;;;;;3.83;1.23;;;;;;;;;;5072974;28;20016;-67
2023/08/01 10:16:00;;;;;;;4.05;1.27;;;;;;;;;;5072191;28;20404;-67
2023/08/01 10:18:28;;;;;;;3.35;1.17;;;;;;;;;;5072613;28;20024;-66
2023/08/01 10:20:53;;;;;;;4.20;1.17;;;;;;;;;;5072656;28;20380;-67
2023/08/01 10:23:19;;;;;;;6.35;1.00;;;;;;;;;;5072700;28;20009;-66
2023/08/01 10:25:45;;;;;;;3.90;1.20;;;;;;;;;;5072989;28;20434;-68
2023/08/01 10:28:10;;;;;;;3.72;1.20;;;;;;;;;;5072673;28;20020;-67
2023/08/01 10:30:35;;;;;;;3.97;0.95;;;;;;;;;;5072418;28;20379;-67
2023/08/01 10:33:00;;;;;;;4.35;1.10;;;;;;;;;;5072513;28;20021;-67
2023/08/01 10:35:32;;;;;;;5.85;1.35;;;;;;;;;;5072710;28;20414;-66
2023/08/01 10:38:03;;;;;;;3.22;1.45;;;;;;;;;;5073350;28;20040;-67
2023/08/01 10:40:42;;;;;;;5.03;1.40;;;;;;;;;;5072145;28;20103;-67
2023/08/01 10:43:23;;;;;;;4.97;1.30;;;;;;;;;;5071404;28;20087;-69
2023/08/01 10:45:48;;;;;;;4.28;1.20;;;;;;;;;;5071910;28;20027;-66
2023/08/01 10:48:14;;;;;;;3.30;1.00;;;;;;;;;;5072402;28;20376;-67
2023/08/01 10:50:39;;;;;;;5.95;1.27;;;;;;;;;;5072385;28;20063;-67
2023/08/01 10:53:06;;;;;;;3.92;1.27;;;;;;;;;;5072047;28;20035;-67
2023/08/01 10:55:48;;;;;;;5.72;1.30;;;;;;;;;;5072017;28;20019;-67
2023/08/01 10:58:13;;;;;;;3.53;1.40;;;;;;;;;;5072283;28;20098;-66
2023/08/01 11:00:38;;;;;;;6.03;1.40;;;;;;;;;;5071995;28;20442;-67
2023/08/01 11:03:04;;;;;;;5.47;1.15;;;;;;;;;;5071663;28;20071;-67
2023/08/01 11:05:29;;;;;;;4.13;1.38;;;;;;;;;;5057115;28;20096;-67
2023/08/01 11:07:59;;;;;;;10.38;2.10;;;;;;;;;;5053029;28;20564;-66
2023/08/01 11:10:28;;;;;;;5.85;2.20;;;;;;;;;;5052635;28;20017;-67
2023/08/01 11:12:53;;;;;;;5.07;2.55;;;;;;;;;;5052484;28;20016;-68
2023/08/01 11:15:18;;;;;;;8.57;2.22;;;;;;;;;;5053357;28;20019;-69
2023/08/01 11:17:47;;;;;;;7.97;2.72;;;;;;;;;;5071176;28;20096;-66
2023/08/01 11:20:13;;;;;;;10.18;3.15;;;;;;;;;;5059455;28;20088;-66
2023/08/01 11:22:48;;;;;;;7.88;2.80;;;;;;;;;;5071916;28;20095;-66
2023/08/01 11:25:13;;;;;;;10.48;3.47;;;;;;;;;;5072048;28;20021;-66
2023/08/01 11:27:39;;;;;;;6.80;2.65;;;;;;;;;;5071319;28;20492;-68
2023/08/01 11:30:04;;;;;;;9.10;2.60;;;;;;;;;;5071567;28;20419;-67
2023/08/01 11:32:34;;;;;;;6.43;2.88;;;;;;;;;;5071715;28;20040;-67
2023/08/01 11:35:00;;;;;;;9.02;2.90;;;;;;;;;;5065755;28;20025;-72
2023/08/01 11:37:25;;;;;;;6.13;2.72;;;;;;;;;;5057577;28;20373;-72
2023/08/01 11:39:51;;;;;;;6.03;2.90;;;;;;;;;;5069428;28;20025;-71
2023/08/01 11:42:16;;;;;;;6.15;2.70;;;;;;;;;;5071276;28;20013;-72
2023/08/01 11:44:42;;;;;;;5.65;2.90;;;;;;;;;;5069911;28;20021;-72
2023/08/01 11:47:14;;;;;;;7.43;2.40;;;;;;;;;;5070048;28;20017;-72
2023/08/01 11:49:44;;;;;;;7.22;2.30;;;;;;;;;;5069992;28;20032;-71
2023/08/01 11:52:09;;;;;;;5.93;2.50;;;;;;;;;;5070185;28;20020;-72
2023/08/01 11:54:43;;;;;;;6.70;2.53;;;;;;;;;;5052193;28;20009;-72
2023/08/01 11:57:08;;;;;;;6.47;2.50;;;;;;;;;;5052422;28;20016;-72
2023/08/01 11:59:33;;;;;;;5.70;2.10;;;;;;;;;;5052074;28;20021;-72
2023/08/01 12:01:59;;;;;;;6.25;1.73;;;;;;;;;;5055672;28;20028;-72
2023/08/01 12:04:28;;;;;;;4.57;1.85;;;;;;;;;;5054938;28;20044;-72
2023/08/01 12:06:53;;;;;;;6.80;2.03;;;;;;;;;;5051843;28;20036;-72
2023/08/01 12:09:19;;;;;;;5.55;1.70;;;;;;;;;;5052076;28;20017;-72
2023/08/01 12:11:44;;;;;;;4.45;1.45;;;;;;;;;;5064866;28;20016;-72
2023/08/01 12:14:11;;;;;;;5.50;1.35;;;;;;;;;;5071475;28;20027;-72
2023/08/01 12:16:37;;;;;;;4.65;1.40;;;;;;;;;;5035178;28;20013;-72
2023/08/01 12:19:03;;;;;;;4.30;1.40;;;;;;;;;;5051558;28;20036;-72
2023/08/01 12:21:28;;;;;;;4.35;1.40;;;;;;;;;;5066245;28;20495;-72
2023/08/01 12:23:54;;;;;;;4.28;1.30;;;;;;;;;;5070192;28;20074;-72
2023/08/01 12:26:19;;;;;;;4.85;1.30;;;;;;;;;;5069802;28;20048;-72
2023/08/01 12:28:44;;;;;;;4.85;1.30;;;;;;;;;;5052045;28;20132;-71
2023/08/01 12:31:09;;;;;;;4.93;1.30;;;;;;;;;;5052096;28;20025;-72
2023/08/01 12:33:35;;;;;;;5.25;1.30;;;;;;;;;;5052013;28;20013;-72
2023/08/01 12:36:00;;;;;;;6.93;1.83;;;;;;;;;;5051641;28;20095;-72
2023/08/01 12:38:26;;;;;;;4.00;1.30;;;;;;;;;;5051857;28;20021;-72
2023/08/01 12:40:51;;;;;;;3.70;1.40;;;;;;;;;;5054759;28;20024;-72
2023/08/01 12:43:17;;;;;;;3.25;1.30;;;;;;;;;;5056958;28;20543;-72
2023/08/01 12:45:42;;;;;;;2.45;1.00;;;;;;;;;;5058072;28;20020;-71
2023/08/01 12:48:07;;;;;;;3.40;1.20;;;;;;;;;;5059879;28;20021;-72
2023/08/01 12:50:32;;;;;;;3.03;1.23;;;;;;;;;;5055021;28;20017;-72
2023/08/01 12:52:58;;;;;;;6.55;1.70;;;;;;;;;;5055107;28;20009;-72
2023/08/01 12:55:23;;;;;;;7.63;1.60;;;;;;;;;;5055072;28;20013;-72
2023/08/01 12:57:48;;;;;;;5.88;1.58;;;;;;;;;;5055243;28;20092;-73
2023/08/01 13:00:13;;;;;;;9.18;1.27;;;;;;;;;;5056657;28;20025;-72
2023/08/01 13:02:39;;;;;;;3.95;1.10;;;;;;;;;;5055878;28;20111;-72
2023/08/01 13:05:05;;;;;;;4.93;1.40;;;;;;;;;;5054872;28;20029;-71
2023/08/01 13:07:34;;;;;;;6.53;1.88;;;;;;;;;;5055169;28;20072;-73
2023/08/01 13:09:59;;;;;;;4.45;1.58;;;;;;;;;;5054929;28;20025;-72
2023/08/01 13:12:25;;;;;;;6.93;2.15;;;;;;;;;;5055081;28;20020;-72
2023/08/01 13:14:50;;;;;;;4.57;1.55;;;;;;;;;;5054996;28;20092;-72
2023/08/01 13:17:15;;;;;;;4.03;1.30;;;;;;;;;;5057245;28;20420;-72
2023/08/01 13:19:40;;;;;;;5.40;1.60;;;;;;;;;;5055971;28;20507;-72
2023/08/01 13:22:06;;;;;;;4.53;1.50;;;;;;;;;;5054440;28;20055;-72
2023/08/01 13:24:31;;;;;;;4.40;1.45;;;;;;;;;;5054778;28;20051;-72
2023/08/01 13:26:56;;;;;;;7.88;2.50;;;;;;;;;;5054786;28;20032;-72
2023/08/01 13:29:21;;;;;;;9.48;2.47;;;;;;;;;;5054682;28;20423;-72
2023/08/01 13:31:47;;;;;;;7.90;2.65;;;;;;;;;;5054320;28;20016;-72
2023/08/01 13:34:12;;;;;;;7.65;2.75;;;;;;;;;;5056099;28;20029;-71
2023/08/01 13:36:37;;;;;;;4.43;1.48;;;;;;;;;;5057024;28;20465;-71
2023/08/01 13:39:03;;;;;;;5.22;1.45;;;;;;;;;;5068753;28;20376;-72
2023/08/01 13:41:28;;;;;;;7.95;1.38;;;;;;;;;;5069217;28;20017;-72
2023/08/01 13:43:53;;;;;;;3.00;1.20;;;;;;;;;;5073579;28;20091;-71
2023/08/01 13:46:19;;;;;;;4.68;1.45;;;;;;;;;;5057139;28;20041;-72
2023/08/01 13:48:45;;;;;;;2.00;0.90;;;;;;;;;;5063677;28;20135;-72
2023/08/01 13:51:11;;;;;;;4.88;1.30;;;;;;;;;;5072684;28;20503;-72
2023/08/01 13:53:42;;;;;;;3.75;1.27;;;;;;;;;;5056467;28;20111;-72
2023/08/01 13:56:07;;;;;;;;;;;;;;;;;;5054595;28;20096;-68
2023/08/01 13:58:33;;;;;;;7.45;1.20;;;;;;;;;;5058855;28;19991;-68
2023/08/01 14:01:02;;;;;;;7.35;1.20;;;;;;;;;;5053940;28;20760;-68
2023/08/01 14:03:27;;;;;;;5.88;1.45;;;;;;;;;;5055928;28;20484;-69
2023/08/01 14:05:52;;;;;;;4.75;0.90;;;;;;;;;;5054019;28;20055;-68
2023/08/01 14:08:17;;;;;;;2.92;0.90;;;;;;;;;;5055854;28;20017;-68
2023/08/01 14:10:43;;;;;;;3.45;0.80;;;;;;;;;;5055653;28;20021;-68
2023/08/01 14:13:08;;;;;;;4.55;0.80;;;;;;;;;;5057077;28;20361;-68
2023/08/01 14:15:33;;;;;;;2.47;0.70;;;;;;;;;;5052981;28;20722;-68
2023/08/01 14:17:58;;;;;;;4.90;1.25;;;;;;;;;;5053403;28;20040;-68
2023/08/01 14:20:24;;;;;;;5.40;1.08;;;;;;;;;;5053954;28;20017;-67
2023/08/01 14:22:49;;;;;;;4.00;1.10;;;;;;;;;;5052827;28;20100;-67
2023/08/01 14:25:14;;;;;;;4.00;1.00;;;;;;;;;;5069684;28;20025;-68
2023/08/01 14:27:39;;;;;;;5.55;1.20;;;;;;;;;;5067814;28;20031;-68
2023/08/01 14:30:06;;;;;;;1.75;0.70;;;;;;;;;;5072234;28;20401;-69